createdAt,value
2018-11-21T00:01:13.927Z,14.45
2018-11-21T00:03:41.577Z,16.20
2018-11-21T00:06:09.187Z,15.43
2018-11-21T00:08:36.957Z,16.32
2018-11-21T00:11:04.653Z,15.20
2018-11-21T00:13:32.344Z,14.95
2018-11-21T00:15:59.964Z,16.42
2018-11-21T00:18:27.610Z,15.03
2018-11-21T00:20:55.241Z,15.58
2018-11-21T00:23:22.830Z,16.27
2018-11-21T00:25:50.514Z,14.68
2018-11-21T00:28:18.136Z,15.30
2018-11-21T00:30:45.713Z,16.97
2018-11-21T00:33:13.316Z,15.38
2018-11-21T00:35:40.866Z,17.05
2018-11-21T00:38:08.505Z,15.63
2018-11-21T00:40:36.101Z,16.23
2018-11-21T00:43:03.967Z,17.05
2018-11-21T00:45:31.641Z,16.02
2018-11-21T00:47:59.373Z,16.10
2018-11-21T00:50:27.014Z,16.52
2018-11-21T00:52:54.756Z,16.30
2018-11-21T00:55:22.367Z,16.87
2018-11-21T00:57:49.985Z,17.20
2018-11-21T01:00:17.597Z,15.90
2018-11-21T01:02:45.158Z,15.88
2018-11-21T01:05:12.724Z,17.07
2018-11-21T01:07:40.306Z,16.65
2018-11-21T01:10:07.816Z,17.52
2018-11-21T01:12:35.447Z,17.90
2018-11-21T01:15:03.031Z,16.02
2018-11-21T01:17:30.670Z,17.73
2018-11-21T01:19:58.231Z,17.87
2018-11-21T01:22:25.837Z,17.50
2018-11-21T01:24:53.468Z,17.67
2018-11-21T01:27:21.147Z,16.27
2018-11-21T01:29:48.691Z,18.15
2018-11-21T01:32:16.272Z,17.10
2018-11-21T01:34:43.931Z,15.88
2018-11-21T01:37:12.371Z,16.40
2018-11-21T01:39:39.963Z,17.17
2018-11-21T01:42:07.602Z,17.30
2018-11-21T01:44:35.200Z,17.52
2018-11-21T01:47:02.852Z,17.40
2018-11-21T01:49:31.517Z,16.45
2018-11-21T01:51:59.168Z,18.27
2018-11-21T01:54:26.957Z,16.02
2018-11-21T01:56:54.610Z,17.05
2018-11-21T01:59:22.192Z,16.12
2018-11-21T02:01:49.799Z,18.42
2018-11-21T02:04:17.406Z,18.30
2018-11-21T02:06:45.025Z,17.75
2018-11-21T02:09:12.611Z,17.90
2018-11-21T02:11:40.198Z,17.87
2018-11-21T02:14:07.876Z,17.32
2018-11-21T02:16:35.771Z,18.92
2018-11-21T02:19:03.589Z,17.90
2018-11-21T02:21:31.271Z,17.90
2018-11-21T02:23:58.878Z,17.82
2018-11-21T02:26:26.645Z,17.57
2018-11-21T02:28:54.198Z,18.20
2018-11-21T02:31:21.737Z,17.17
2018-11-21T02:33:49.333Z,18.30
2018-11-21T02:36:16.931Z,18.42
2018-11-21T02:38:44.519Z,17.85
2018-11-21T02:41:12.087Z,17.80
2018-11-21T02:43:39.661Z,17.82
2018-11-21T02:46:07.212Z,18.20
2018-11-21T02:48:34.795Z,18.15
2018-11-21T02:51:02.335Z,17.75
2018-11-21T02:53:30.116Z,18.55
2018-11-21T02:55:57.705Z,17.75
2018-11-21T02:58:25.304Z,18.20
2018-11-21T03:00:52.836Z,18.60
2018-11-21T03:03:20.483Z,19.30
2018-11-21T03:05:48.727Z,17.17
2018-11-21T03:08:16.347Z,18.87
2018-11-21T03:10:44.017Z,16.95
2018-11-21T03:13:11.620Z,18.17
2018-11-21T03:15:39.225Z,18.70
2018-11-21T03:18:06.806Z,17.82
2018-11-21T03:20:34.411Z,17.27
2018-11-21T03:23:02.071Z,18.82
2018-11-21T03:25:29.692Z,18.07
2018-11-21T03:27:57.293Z,18.57
2018-11-21T03:30:24.910Z,17.55
2018-11-21T03:32:52.697Z,16.80
2018-11-21T03:35:20.411Z,16.85
2018-11-21T03:37:47.969Z,17.98
2018-11-21T03:40:15.592Z,18.87
2018-11-21T03:42:43.219Z,17.00
2018-11-21T03:45:11.660Z,19.17
2018-11-21T03:47:39.347Z,17.90
2018-11-21T03:50:09.307Z,17.95
2018-11-21T03:52:37.202Z,17.77
2018-11-21T03:55:05.481Z,18.05
2018-11-21T03:57:33.055Z,17.70
2018-11-21T04:00:00.658Z,16.40
2018-11-21T04:02:28.247Z,16.87
2018-11-21T04:04:55.835Z,16.77
2018-11-21T04:07:23.423Z,19.17
2018-11-21T04:09:50.968Z,18.42
2018-11-21T04:12:18.511Z,16.85
2018-11-21T04:14:46.090Z,18.10
2018-11-21T04:17:13.702Z,18.67
2018-11-21T04:19:41.260Z,17.45
2018-11-21T04:22:08.879Z,18.48
2018-11-21T04:24:36.459Z,18.52
2018-11-21T04:27:04.189Z,17.48
2018-11-21T04:29:31.775Z,17.37
2018-11-21T04:31:59.360Z,18.35
2018-11-21T04:34:26.948Z,21.02
2018-11-21T04:36:54.516Z,18.40
2018-11-21T04:39:22.132Z,19.57
2018-11-21T04:41:49.677Z,18.40
2018-11-21T04:44:17.236Z,19.80
2018-11-21T04:46:44.815Z,17.92
2018-11-21T04:49:12.438Z,17.65
2018-11-21T04:51:39.998Z,16.55
2018-11-21T04:54:07.554Z,18.20
2018-11-21T04:56:35.091Z,16.80
2018-11-21T04:59:02.612Z,17.82
2018-11-21T05:01:30.284Z,20.05
2018-11-21T05:03:58.342Z,18.52
2018-11-21T05:06:25.988Z,18.50
2018-11-21T05:08:53.551Z,18.57
2018-11-21T05:11:21.258Z,17.80
2018-11-21T05:13:48.759Z,19.75
2018-11-21T05:16:16.509Z,17.42
2018-11-21T05:18:44.161Z,19.80
2018-11-21T05:21:11.804Z,18.92
2018-11-21T05:23:39.367Z,18.25
2018-11-21T05:26:06.946Z,18.65
2018-11-21T05:28:34.598Z,20.20
2018-11-21T05:31:02.192Z,18.52
2018-11-21T05:33:29.830Z,19.48
2018-11-21T05:35:57.412Z,20.02
2018-11-21T05:38:25.099Z,17.95
2018-11-21T05:40:52.703Z,20.17
2018-11-21T05:43:20.335Z,18.00
2018-11-21T05:45:47.910Z,18.92
2018-11-21T05:48:15.522Z,19.10
2018-11-21T05:50:43.165Z,18.00
2018-11-21T05:53:10.761Z,19.50
2018-11-21T05:55:38.293Z,19.25
2018-11-21T05:58:05.988Z,17.70
2018-11-21T06:00:33.646Z,18.20
2018-11-21T06:03:01.256Z,17.82
2018-11-21T06:05:28.830Z,17.70
2018-11-21T06:07:56.447Z,18.80
2018-11-21T06:10:24.068Z,17.15
2018-11-21T06:12:51.781Z,17.17
2018-11-21T06:15:19.384Z,16.15
2018-11-21T06:17:48.303Z,17.10
2018-11-21T06:20:15.013Z,17.32
2018-11-21T06:22:43.188Z,18.20
2018-11-21T06:25:11.480Z,17.52
2018-11-21T06:27:39.333Z,16.87
2018-11-21T06:30:12.622Z,18.77
2018-11-21T06:32:40.748Z,18.35
2018-11-21T06:35:09.743Z,19.05
2018-11-21T06:37:37.767Z,17.92
2018-11-21T06:40:10.320Z,18.45
2018-11-21T06:42:38.031Z,17.87
2018-11-21T06:45:07.596Z,19.02
2018-11-21T06:47:35.224Z,17.92
2018-11-21T06:50:03.047Z,17.23
2018-11-21T06:52:30.714Z,19.35
2018-11-21T06:54:58.352Z,17.50
2018-11-21T06:57:26.031Z,17.65
2018-11-21T06:59:53.651Z,19.07
2018-11-21T07:02:21.259Z,19.25
2018-11-21T07:04:48.833Z,17.60
2018-11-21T07:07:16.527Z,18.23
2018-11-21T07:09:44.142Z,18.20
2018-11-21T07:12:11.765Z,18.75
2018-11-21T07:14:39.360Z,19.48
2018-11-21T07:17:06.914Z,17.10
2018-11-21T07:19:34.498Z,17.00
2018-11-21T07:22:02.477Z,16.73
2018-11-21T07:24:30.107Z,17.82
2018-11-21T07:26:57.806Z,16.40
2018-11-21T07:29:25.453Z,17.98
2018-11-21T07:31:53.203Z,17.65
2018-11-21T07:34:21.641Z,16.77
2018-11-21T07:36:50.249Z,17.10
2018-11-21T07:39:17.828Z,18.98
2018-11-21T07:41:45.605Z,17.52
2018-11-21T07:44:13.299Z,17.98
2018-11-21T07:46:40.980Z,20.02
2018-11-21T07:49:08.796Z,17.75
2018-11-21T07:51:36.416Z,16.85
2018-11-21T07:54:04.471Z,17.90
2018-11-21T07:57:23.862Z,16.77
2018-11-21T08:00:47.047Z,18.45
2018-11-21T08:03:14.889Z,16.20
2018-11-21T08:05:45.030Z,19.67
2018-11-21T08:08:27.740Z,15.40
2018-11-21T08:11:13.473Z,16.35
2018-11-21T08:13:59.286Z,18.25
2018-11-21T08:16:55.544Z,16.75
2018-11-21T08:19:41.206Z,16.73
2018-11-21T08:22:30.485Z,17.55
2018-11-21T08:25:16.030Z,18.07
2018-11-21T08:28:12.107Z,17.57
2018-11-21T08:30:39.724Z,17.42
2018-11-21T08:33:07.551Z,16.05
2018-11-21T08:35:35.144Z,16.30
2018-11-21T08:38:02.744Z,15.45
2018-11-21T08:40:30.384Z,16.77
2018-11-21T08:42:57.999Z,14.80
2018-11-21T08:45:25.575Z,16.87
2018-11-21T08:47:53.608Z,17.98
2018-11-21T08:52:54.932Z,18.07
2018-11-21T08:55:22.578Z,16.32
2018-11-21T08:57:50.205Z,16.48
2018-11-21T09:00:17.883Z,15.72
2018-11-21T09:02:45.582Z,17.17
2018-11-21T09:05:13.150Z,15.28
2018-11-21T09:07:41.366Z,16.55
2018-11-21T09:10:13.076Z,16.35
2018-11-21T09:12:40.957Z,17.45
2018-11-21T09:15:11.867Z,17.25
2018-11-21T09:17:39.853Z,15.68
2018-11-21T09:20:08.851Z,16.23
2018-11-21T09:22:38.742Z,16.85
2018-11-21T09:25:08.477Z,18.17
2018-11-21T09:27:36.551Z,15.05
2018-11-21T09:30:12.105Z,15.80
2018-11-21T09:32:39.908Z,16.37
2018-11-21T09:35:10.556Z,15.15
2018-11-21T09:37:38.239Z,15.72
2018-11-21T09:40:12.149Z,14.28
2018-11-21T09:42:41.133Z,14.98
2018-11-21T09:45:11.436Z,14.85
2018-11-21T09:47:38.934Z,16.48
2018-11-21T09:50:11.111Z,15.75
2018-11-21T09:52:38.849Z,15.30
2018-11-21T09:55:06.813Z,14.73
2018-11-21T09:57:34.451Z,14.13
2018-11-21T10:00:02.746Z,14.50
2018-11-21T10:03:13.408Z,15.48
2018-11-21T10:05:42.126Z,13.58
2018-11-21T10:08:52.285Z,14.50
2018-11-21T10:11:20.399Z,14.60
2018-11-21T10:13:48.152Z,14.68
2018-11-21T10:16:15.931Z,15.32
2018-11-21T10:18:45.013Z,15.00
2018-11-21T10:21:14.154Z,15.70
2018-11-21T10:23:41.816Z,14.05
2018-11-21T10:26:09.737Z,13.83
2018-11-21T10:28:37.871Z,13.95
2018-11-21T10:31:05.544Z,14.60
2018-11-21T10:33:33.356Z,14.43
2018-11-21T10:36:01.449Z,14.20
2018-11-21T10:38:29.165Z,15.88
2018-11-21T10:40:56.824Z,14.30
2018-11-21T10:43:28.380Z,14.30
2018-11-21T10:45:52.207Z,15.13
2018-11-21T10:48:19.895Z,13.68
2018-11-21T10:50:47.515Z,14.55
2018-11-21T10:53:15.223Z,13.78
2018-11-21T10:55:42.849Z,14.35
2018-11-21T10:58:10.922Z,13.35
2018-11-21T11:00:56.748Z,14.73
2018-11-21T11:03:43.971Z,14.47
2018-11-21T11:06:46.272Z,15.75
2018-11-21T11:09:36.214Z,14.18
2018-11-21T11:12:22.225Z,15.72
2018-11-21T11:15:09.593Z,14.07
2018-11-21T11:17:59.473Z,13.68
2018-11-21T11:20:42.514Z,13.70
2018-11-21T11:23:28.578Z,13.90
2018-11-21T11:26:34.138Z,12.53
2018-11-21T11:29:22.761Z,9.35
2018-11-21T11:32:28.063Z,10.65
2018-11-21T11:35:14.029Z,10.75
2018-11-21T11:38:03.912Z,11.20
2018-11-21T11:40:49.913Z,11.80
2018-11-21T11:43:35.498Z,9.38
2018-11-21T11:46:34.727Z,10.48
2018-11-21T11:49:40.120Z,10.63
2018-11-21T11:52:33.362Z,10.40
2018-11-21T11:55:29.439Z,11.12
2018-11-21T11:58:16.695Z,10.20
2018-11-21T12:01:06.630Z,9.53
2018-11-21T12:03:57.737Z,8.63
2018-11-21T12:06:38.319Z,10.55
2018-11-21T12:09:25.924Z,9.73
2018-11-21T12:12:13.123Z,9.73
2018-11-21T12:14:59.020Z,8.60
2018-11-21T12:17:44.773Z,9.05
2018-11-21T12:20:31.243Z,9.65
2018-11-21T12:23:18.417Z,9.48
2018-11-21T12:26:11.399Z,10.40
2018-11-21T12:29:00.471Z,8.90
2018-11-21T12:31:52.422Z,9.40
2018-11-21T12:34:45.378Z,10.78
2018-11-21T12:37:51.447Z,10.45
2018-11-21T12:40:37.613Z,9.98
2018-11-21T12:43:40.242Z,10.30
2018-11-21T12:46:26.082Z,9.03
2018-11-21T12:49:22.172Z,12.93
2018-11-21T12:52:08.327Z,9.20
2018-11-21T12:54:47.100Z,11.45
2018-11-21T12:57:37.058Z,9.73
2018-11-21T13:00:18.441Z,9.18
2018-11-21T13:03:05.717Z,9.33
2018-11-21T13:05:54.344Z,8.83
2018-11-21T13:08:47.794Z,8.88
2018-11-21T13:11:23.469Z,9.15
2018-11-21T13:14:04.530Z,7.55
2018-11-21T13:17:09.952Z,7.62
2018-11-21T13:19:59.990Z,8.23
2018-11-21T13:23:05.935Z,8.40
2018-11-21T13:25:53.155Z,6.97
2018-11-21T13:28:43.115Z,8.60
2018-11-21T13:31:35.851Z,7.25
2018-11-21T13:34:21.819Z,8.60
2018-11-21T13:37:09.032Z,7.83
2018-11-21T13:40:08.332Z,8.13
2018-11-21T13:42:55.368Z,8.38
2018-11-21T13:45:41.409Z,9.03
2018-11-21T13:48:37.068Z,7.87
2018-11-21T13:51:36.368Z,8.20
2018-11-21T13:54:23.674Z,9.00
2018-11-21T13:56:51.275Z,7.78
2018-11-21T13:59:18.917Z,7.85
2018-11-21T14:01:46.679Z,8.48
2018-11-21T14:04:15.811Z,7.78
2018-11-21T14:06:43.541Z,7.50
2018-11-21T14:09:12.583Z,9.43
2018-11-21T14:11:40.197Z,7.92
2018-11-21T14:14:08.724Z,7.80
2018-11-21T14:16:36.463Z,8.10
2018-11-21T14:19:05.175Z,8.50
2018-11-21T14:21:32.807Z,8.80
2018-11-21T14:24:00.485Z,9.38
2018-11-21T14:26:28.297Z,8.55
2018-11-21T14:28:55.971Z,8.20
2018-11-21T14:31:24.086Z,9.63
2018-11-21T14:33:51.915Z,8.83
2018-11-21T14:36:19.598Z,9.55
2018-11-21T14:38:47.356Z,8.55
2018-11-21T14:41:15.237Z,9.40
2018-11-21T14:43:42.959Z,9.15
2018-11-21T14:46:10.656Z,8.10
2018-11-21T14:48:38.745Z,9.60
2018-11-21T14:51:06.430Z,8.68
2018-11-21T14:53:34.150Z,8.50
2018-11-21T14:56:01.947Z,8.80
2018-11-21T14:58:29.783Z,9.95
2018-11-21T15:00:57.450Z,9.40
2018-11-21T15:03:25.335Z,9.03
2018-11-21T15:05:53.010Z,10.00
2018-11-21T15:08:20.720Z,9.03
2018-11-21T15:10:49.217Z,9.05
2018-11-21T15:13:17.578Z,9.35
2018-11-21T15:15:45.285Z,9.35
2018-11-21T15:18:13.101Z,8.10
2018-11-21T15:20:40.767Z,8.48
2018-11-21T15:23:08.472Z,8.40
2018-11-21T15:25:36.297Z,8.25
2018-11-21T15:28:04.039Z,8.10
2018-11-21T15:30:31.930Z,8.93
2018-11-21T15:32:59.613Z,8.75
2018-11-21T15:35:27.726Z,8.50
2018-11-21T15:37:55.391Z,10.40
2018-11-21T15:40:24.304Z,10.55
2018-11-21T15:42:52.119Z,10.80
2018-11-21T15:45:21.505Z,10.43
2018-11-21T15:47:54.934Z,11.15
2018-11-21T15:50:22.694Z,11.38
2018-11-21T15:52:53.145Z,11.18
2018-11-21T15:55:18.763Z,11.78
2018-11-21T15:57:46.687Z,11.20
2018-11-21T16:00:17.716Z,10.28
2018-11-21T16:02:46.864Z,10.23
2018-11-21T16:05:15.118Z,11.68
2018-11-21T16:07:42.871Z,11.00
2018-11-21T16:10:18.916Z,11.73
2018-11-21T16:12:46.053Z,11.60
2018-11-21T16:15:17.999Z,11.78
2018-11-21T16:17:45.833Z,10.65
2018-11-21T16:20:14.784Z,11.93
2018-11-21T16:22:42.603Z,12.18
2018-11-21T16:25:12.626Z,10.60
2018-11-21T16:27:40.986Z,11.73
2018-11-21T16:30:17.900Z,12.25
2018-11-21T16:32:46.136Z,11.65
2018-11-21T16:35:14.174Z,13.70
2018-11-21T16:37:45.238Z,16.00
2018-11-21T16:40:18.743Z,12.05
2018-11-21T16:42:46.811Z,11.85
2018-11-21T16:45:16.435Z,11.55
2018-11-21T16:47:44.121Z,10.38
2018-11-21T16:50:14.079Z,11.28
2018-11-21T16:52:41.891Z,11.00
2018-11-21T16:55:12.184Z,11.78
2018-11-21T16:57:40.002Z,11.10
2018-11-21T17:00:14.689Z,10.30
2018-11-21T17:02:42.538Z,11.38
2018-11-21T17:05:11.915Z,10.75
2018-11-21T17:07:40.093Z,10.78
2018-11-21T17:10:10.852Z,12.25
2018-11-21T17:12:38.759Z,11.03
2018-11-21T17:15:10.726Z,11.95
2018-11-21T17:17:38.654Z,11.10
2018-11-21T17:20:11.039Z,10.88
2018-11-21T17:22:38.836Z,10.40
2018-11-21T17:25:10.926Z,10.85
2018-11-21T17:27:39.260Z,12.03
2018-11-21T17:30:10.666Z,10.65
2018-11-21T17:32:39.738Z,11.28
2018-11-21T17:35:08.800Z,10.08
2018-11-21T17:37:36.650Z,10.58
2018-11-21T17:40:14.828Z,10.03
2018-11-21T17:42:42.534Z,12.13
2018-11-21T17:45:11.275Z,9.90
2018-11-21T17:47:39.480Z,10.40
2018-11-21T17:50:11.041Z,10.43
2018-11-21T17:52:39.124Z,11.40
2018-11-21T17:55:10.422Z,10.60
2018-11-21T17:57:38.661Z,11.70
2018-11-21T18:00:14.871Z,11.57
2018-11-21T18:02:45.395Z,10.80
2018-11-21T18:05:14.740Z,12.10
2018-11-21T18:07:42.449Z,11.20
2018-11-21T18:10:16.192Z,11.20
2018-11-21T18:12:47.119Z,10.90
2018-11-21T18:15:15.570Z,11.48
2018-11-21T18:17:44.525Z,11.57
2018-11-21T18:20:13.057Z,10.93
2018-11-21T18:22:41.696Z,10.93
2018-11-21T18:25:12.435Z,12.50
2018-11-21T18:27:40.187Z,11.70
2018-11-21T18:30:13.713Z,12.88
2018-11-21T18:32:42.970Z,12.58
2018-11-21T18:35:12.480Z,11.45
2018-11-21T18:37:40.464Z,11.35
2018-11-21T18:40:12.049Z,11.20
2018-11-21T18:42:40.082Z,11.10
2018-11-21T18:45:14.908Z,11.38
2018-11-21T18:47:43.541Z,11.33
2018-11-21T18:50:15.611Z,11.80
2018-11-21T18:52:44.273Z,11.05
2018-11-21T18:55:14.880Z,12.63
2018-11-21T18:58:59.833Z,12.07
2018-11-21T19:01:28.200Z,13.35
2018-11-21T19:03:56.203Z,10.95
2018-11-21T19:06:24.067Z,11.22
2018-11-21T19:08:51.873Z,11.35
2018-11-21T19:11:19.666Z,12.40
2018-11-21T19:13:47.397Z,10.98
2018-11-21T19:16:15.240Z,10.30
2018-11-21T19:18:43.073Z,11.83
2018-11-21T19:21:10.938Z,11.97
2018-11-21T19:23:39.112Z,11.73
2018-11-21T19:26:07.584Z,11.78
2018-11-21T19:28:35.346Z,11.90
2018-11-21T19:31:03.198Z,12.07
2018-11-21T19:33:31.504Z,12.05
2018-11-21T19:35:59.689Z,11.40
2018-11-21T19:38:27.473Z,13.18
2018-11-21T19:40:55.249Z,11.20
2018-11-21T19:43:24.126Z,11.93
2018-11-21T19:45:50.945Z,11.70
2018-11-21T19:48:18.726Z,13.05
2018-11-21T19:50:46.476Z,12.63
2018-11-21T19:53:15.504Z,13.05
2018-11-21T19:55:43.793Z,14.23
2018-11-21T19:58:11.615Z,13.10
2018-11-21T20:00:39.695Z,14.40
2018-11-21T20:03:07.445Z,14.40
2018-11-21T20:05:35.306Z,12.95
2018-11-21T20:08:03.104Z,13.83
2018-11-21T20:10:30.913Z,15.10
2018-11-21T20:12:58.713Z,14.13
2018-11-21T20:15:27.298Z,14.20
2018-11-21T20:17:56.820Z,14.85
2018-11-21T20:20:24.633Z,15.45
2018-11-21T20:22:52.889Z,16.02
2018-11-21T20:25:21.471Z,15.35
2018-11-21T20:27:49.201Z,15.72
2018-11-21T20:30:19.118Z,15.65
2018-11-21T20:32:47.016Z,15.72
2018-11-21T20:35:15.504Z,17.17
2018-11-21T20:37:43.839Z,17.12
2018-11-21T20:40:17.741Z,16.32
2018-11-21T20:42:46.238Z,17.02
2018-11-21T20:45:18.384Z,16.97
2018-11-21T20:47:48.452Z,18.48
2018-11-21T20:50:16.485Z,17.98
2018-11-21T20:52:45.815Z,17.48
2018-11-21T20:55:14.271Z,17.55
2018-11-21T20:57:42.662Z,18.10
2018-11-21T21:00:14.356Z,19.25
2018-11-21T21:02:42.435Z,18.70
2018-11-21T21:05:11.590Z,18.20
2018-11-21T21:07:40.905Z,19.92
2018-11-21T21:10:11.292Z,18.50
2018-11-21T21:12:39.344Z,19.77
2018-11-21T21:15:09.456Z,20.45
2018-11-21T21:17:39.773Z,19.57
2018-11-21T21:20:11.422Z,19.67
2018-11-21T21:22:39.969Z,19.50
2018-11-21T21:25:15.672Z,18.40
2018-11-21T21:27:43.431Z,19.90
2018-11-21T21:30:18.941Z,20.50
2018-11-21T21:32:47.168Z,19.82
2018-11-21T21:35:17.796Z,20.65
2018-11-21T21:37:45.533Z,19.82
2018-11-21T21:40:20.259Z,19.82
2018-11-21T21:42:43.137Z,20.70
2018-11-21T21:45:13.061Z,20.27
2018-11-21T21:47:41.769Z,23.55
2018-11-21T21:50:10.148Z,20.97
2018-11-21T21:52:37.947Z,21.97
2018-11-21T21:55:09.693Z,24.07
2018-11-21T21:57:37.516Z,21.05
2018-11-21T22:00:19.614Z,22.02
2018-11-21T22:02:48.950Z,21.12
2018-11-21T22:05:16.714Z,21.37
2018-11-21T22:07:44.696Z,23.75
2018-11-21T22:10:14.028Z,22.90
2018-11-21T22:12:41.904Z,23.27
2018-11-21T22:15:22.567Z,22.73
2018-11-21T22:17:51.688Z,22.22
2018-11-21T22:20:19.866Z,24.12
2018-11-21T22:22:48.252Z,21.95
2018-11-21T22:25:16.273Z,22.80
2018-11-21T22:27:44.002Z,23.83
2018-11-21T22:30:13.393Z,22.85
2018-11-21T22:32:42.685Z,23.73
2018-11-21T22:35:11.774Z,25.30
2018-11-21T22:37:51.114Z,23.90
2018-11-21T22:40:14.442Z,22.85
2018-11-21T22:42:43.203Z,22.32
2018-11-21T22:45:12.644Z,25.50
2018-11-21T22:47:40.968Z,22.32
2018-11-21T22:50:10.905Z,24.92
2018-11-21T22:52:38.803Z,25.40
2018-11-21T22:55:09.894Z,23.83
2018-11-21T22:57:37.901Z,24.27
2018-11-21T23:00:13.551Z,23.98
2018-11-21T23:02:41.332Z,26.52
2018-11-21T23:05:13.304Z,25.05
2018-11-21T23:07:42.509Z,25.48
2018-11-21T23:10:12.399Z,24.18
2018-11-21T23:12:40.439Z,27.10
2018-11-21T23:15:09.507Z,23.87
2018-11-21T23:17:37.244Z,24.43
2018-11-21T23:20:08.533Z,24.18
2018-11-21T23:22:36.258Z,24.30
2018-11-21T23:25:04.621Z,26.73
2018-11-21T23:27:33.104Z,25.82
2018-11-21T23:30:00.768Z,25.50
2018-11-21T23:32:30.972Z,25.23
2018-11-21T23:34:58.899Z,25.50
2018-11-21T23:37:26.548Z,25.80
2018-11-21T23:39:54.709Z,24.00
2018-11-21T23:42:22.855Z,23.73
2018-11-21T23:44:50.657Z,26.05
2018-11-21T23:47:18.324Z,23.80
2018-11-21T23:49:46.847Z,25.43
2018-11-21T23:52:15.077Z,25.05
2018-11-21T23:54:42.555Z,27.20
2018-11-21T23:57:16.170Z,25.52
2018-11-21T23:59:37.985Z,24.57
